createdAt,value
2022-10-16T00:01:37.316Z,2.05
2022-10-16T00:04:04.676Z,1.45
2022-10-16T00:06:32.888Z,1.73
2022-10-16T00:09:00.097Z,2.05
2022-10-16T00:11:39.225Z,2.00
2022-10-16T00:14:11.437Z,1.58
2022-10-16T00:16:38.760Z,1.70
2022-10-16T00:19:06.328Z,1.58
2022-10-16T00:21:34.314Z,2.10
2022-10-16T00:24:10.035Z,1.73
2022-10-16T00:26:39.116Z,1.70
2022-10-16T00:29:07.620Z,1.85
2022-10-16T00:31:34.387Z,1.80
2022-10-16T00:34:01.479Z,1.90
2022-10-16T00:36:28.647Z,1.50
2022-10-16T00:41:34.759Z,1.75
2022-10-16T00:44:25.048Z,1.77
2022-10-16T00:46:52.288Z,1.55
2022-10-16T00:49:21.581Z,1.77
2022-10-16T00:51:54.487Z,1.75
2022-10-16T00:54:28.539Z,1.75
2022-10-16T00:56:58.383Z,2.22
2022-10-16T00:59:40.823Z,2.13
2022-10-16T01:02:11.299Z,1.90
2022-10-16T01:04:58.443Z,2.08
2022-10-16T01:08:22.116Z,1.58
2022-10-16T01:11:18.424Z,2.03
2022-10-16T01:13:56.098Z,1.88
2022-10-16T01:16:42.674Z,1.83
2022-10-16T01:19:26.642Z,1.60
2022-10-16T01:21:56.416Z,2.40
2022-10-16T01:24:40.845Z,2.05
2022-10-16T01:27:14.566Z,2.05
2022-10-16T01:30:10.818Z,1.75
2022-10-16T01:32:55.983Z,2.03
2022-10-16T01:35:33.024Z,2.00
2022-10-16T01:38:13.414Z,2.50
2022-10-16T01:40:47.080Z,1.92
2022-10-16T01:43:20.925Z,2.30
2022-10-16T01:45:48.347Z,1.80
2022-10-16T01:48:22.111Z,2.05
2022-10-16T01:51:16.243Z,2.00
2022-10-16T01:53:50.428Z,1.50
2022-10-16T01:56:21.262Z,2.00
2022-10-16T01:59:05.108Z,1.85
2022-10-16T02:01:37.399Z,1.92
2022-10-16T02:04:21.284Z,1.75
2022-10-16T02:06:48.522Z,2.00
2022-10-16T02:09:17.685Z,1.90
2022-10-16T02:11:45.423Z,2.08
2022-10-16T02:14:12.291Z,1.90
2022-10-16T02:16:43.699Z,1.92
2022-10-16T02:19:15.912Z,2.42
2022-10-16T02:21:52.389Z,2.30
2022-10-16T02:24:39.479Z,2.22
2022-10-16T02:27:52.479Z,2.10
2022-10-16T02:30:45.901Z,2.17
2022-10-16T02:33:15.747Z,1.83
2022-10-16T02:35:46.027Z,1.90
2022-10-16T02:38:15.647Z,2.00
2022-10-16T02:40:43.510Z,1.90
2022-10-16T02:43:11.546Z,1.88
2022-10-16T02:45:38.521Z,2.00
2022-10-16T02:48:05.968Z,2.00
2022-10-16T02:50:32.771Z,1.88
2022-10-16T02:52:59.504Z,2.08
2022-10-16T02:55:27.021Z,1.83
2022-10-16T02:57:54.041Z,1.98
2022-10-16T03:00:21.409Z,2.17
2022-10-16T03:02:48.318Z,2.15
2022-10-16T03:05:16.235Z,1.73
2022-10-16T03:07:43.421Z,1.77
2022-10-16T03:10:10.252Z,2.00
2022-10-16T03:12:37.012Z,1.70
2022-10-16T03:15:05.192Z,1.40
2022-10-16T03:17:33.763Z,1.92
2022-10-16T03:20:00.579Z,1.70
2022-10-16T03:22:28.369Z,1.77
2022-10-16T03:24:55.366Z,1.73
2022-10-16T03:27:22.095Z,1.60
2022-10-16T03:29:48.820Z,1.73
2022-10-16T03:32:15.605Z,1.90
2022-10-16T03:34:42.376Z,1.60
2022-10-16T03:37:09.736Z,1.50
2022-10-16T03:39:36.466Z,1.70
2022-10-16T03:42:03.575Z,1.20
2022-10-16T03:44:30.515Z,1.65
2022-10-16T03:46:57.313Z,1.58
2022-10-16T03:49:24.199Z,1.48
2022-10-16T03:51:50.991Z,1.20
2022-10-16T03:54:17.792Z,1.40
2022-10-16T03:56:44.528Z,1.40
2022-10-16T03:59:11.288Z,1.55
2022-10-16T04:01:38.003Z,1.65
2022-10-16T04:04:04.728Z,1.30
2022-10-16T04:06:31.445Z,1.40
2022-10-16T04:08:58.223Z,1.55
2022-10-16T04:11:25.099Z,1.40
2022-10-16T04:13:51.813Z,1.45
2022-10-16T04:16:18.556Z,1.50
2022-10-16T04:18:45.328Z,1.40
2022-10-16T04:21:12.111Z,1.13
2022-10-16T04:23:38.872Z,1.75
2022-10-16T04:26:06.485Z,1.30
2022-10-16T04:28:33.440Z,1.50
2022-10-16T04:31:00.162Z,1.20
2022-10-16T04:33:26.894Z,1.30
2022-10-16T04:36:04.455Z,1.65
2022-10-16T04:38:31.458Z,1.42
2022-10-16T04:40:58.167Z,1.30
2022-10-16T04:43:25.082Z,1.52
2022-10-16T04:45:52.027Z,1.48
2022-10-16T04:48:19.667Z,1.70
2022-10-16T04:50:50.381Z,1.25
2022-10-16T04:53:19.850Z,1.58
2022-10-16T04:55:46.891Z,1.60
2022-10-16T04:58:13.949Z,1.30
2022-10-16T05:00:40.925Z,1.30
2022-10-16T05:03:09.625Z,1.60
2022-10-16T05:05:37.643Z,1.38
2022-10-16T05:08:04.942Z,1.17
2022-10-16T05:10:31.918Z,1.40
2022-10-16T05:12:58.950Z,1.70
2022-10-16T05:15:26.088Z,1.45
2022-10-16T05:17:56.736Z,1.40
2022-10-16T05:20:24.444Z,1.50
2022-10-16T05:22:51.189Z,1.45
2022-10-16T05:25:18.187Z,1.55
2022-10-16T05:27:48.635Z,1.45
2022-10-16T05:30:16.604Z,1.48
2022-10-16T05:32:47.821Z,1.40
2022-10-16T05:35:14.750Z,1.45
2022-10-16T05:37:41.508Z,1.33
2022-10-16T05:40:09.495Z,1.65
2022-10-16T05:42:36.527Z,1.33
2022-10-16T05:45:03.721Z,1.60
2022-10-16T05:47:30.463Z,1.42
2022-10-16T05:49:57.195Z,1.50
2022-10-16T05:52:23.916Z,1.45
2022-10-16T05:54:50.710Z,1.58
2022-10-16T05:57:17.579Z,1.45
2022-10-16T05:59:44.336Z,2.25
2022-10-16T06:02:15.724Z,1.88
2022-10-16T06:04:42.624Z,1.65
2022-10-16T06:07:09.447Z,1.70
2022-10-16T06:09:36.226Z,1.60
2022-10-16T06:12:03.110Z,1.70
2022-10-16T06:14:30.041Z,1.88
2022-10-16T06:16:56.780Z,1.75
2022-10-16T06:19:24.047Z,1.77
2022-10-16T06:21:50.853Z,1.70
2022-10-16T06:24:17.750Z,1.77
2022-10-16T06:26:44.613Z,1.50
2022-10-16T06:29:11.399Z,1.98
2022-10-16T06:31:38.124Z,1.73
2022-10-16T06:34:07.107Z,1.90
2022-10-16T06:36:33.893Z,1.83
2022-10-16T06:39:00.705Z,1.92
2022-10-16T06:41:27.423Z,1.65
2022-10-16T06:43:54.263Z,1.70
2022-10-16T06:46:24.784Z,1.95
2022-10-16T06:48:51.984Z,1.40
2022-10-16T06:51:24.263Z,2.00
2022-10-16T06:54:08.936Z,1.88
2022-10-16T06:56:37.094Z,1.65
2022-10-16T06:59:04.397Z,1.48
2022-10-16T07:01:31.905Z,1.75
2022-10-16T07:03:58.831Z,1.58
2022-10-16T07:06:27.625Z,1.55
2022-10-16T07:08:54.918Z,1.65
2022-10-16T07:11:24.387Z,1.20
2022-10-16T07:13:54.806Z,1.83
2022-10-16T07:16:28.658Z,1.45
2022-10-16T07:19:01.017Z,1.50
2022-10-16T07:21:36.074Z,1.08
2022-10-16T07:24:04.326Z,1.20
2022-10-16T07:26:34.673Z,1.20
2022-10-16T07:29:01.929Z,1.38
2022-10-16T07:31:29.079Z,1.55
2022-10-16T07:33:56.172Z,1.20
2022-10-16T07:36:23.254Z,1.38
2022-10-16T07:38:51.911Z,0.98
2022-10-16T07:41:21.126Z,1.52
2022-10-16T07:43:55.379Z,1.40
2022-10-16T07:46:23.913Z,1.23
2022-10-16T07:48:51.370Z,1.30
2022-10-16T07:51:22.192Z,1.40
2022-10-16T07:53:50.228Z,1.50
2022-10-16T07:56:19.091Z,1.42
2022-10-16T07:58:46.377Z,1.67
2022-10-16T08:01:16.305Z,1.42
2022-10-16T08:03:49.403Z,1.80
2022-10-16T08:06:17.014Z,2.00
2022-10-16T08:08:43.952Z,2.05
2022-10-16T08:11:11.123Z,1.70
2022-10-16T08:13:38.446Z,1.73
2022-10-16T08:16:09.197Z,1.88
2022-10-16T08:18:38.249Z,1.80
2022-10-16T08:21:07.319Z,2.28
2022-10-16T08:23:35.075Z,2.05
2022-10-16T08:26:09.254Z,1.73
2022-10-16T08:28:36.926Z,2.00
2022-10-16T08:31:14.776Z,1.50
2022-10-16T08:33:44.636Z,1.70
2022-10-16T08:36:12.263Z,2.00
2022-10-16T08:38:39.659Z,1.60
2022-10-16T08:42:05.272Z,1.42
2022-10-16T08:44:50.796Z,1.85
2022-10-16T08:47:27.425Z,1.80
2022-10-16T08:49:59.160Z,1.70
2022-10-16T08:52:34.859Z,1.70
2022-10-16T08:55:02.771Z,1.50
2022-10-16T08:57:32.343Z,1.45
2022-10-16T09:00:12.600Z,1.65
2022-10-16T09:02:51.868Z,1.42
2022-10-16T09:05:49.722Z,1.25
2022-10-16T09:08:44.318Z,1.80
2022-10-16T09:11:47.287Z,1.40
2022-10-16T09:14:37.263Z,1.52
2022-10-16T09:17:28.434Z,1.08
2022-10-16T09:20:19.671Z,1.77
2022-10-16T09:22:46.931Z,1.88
2022-10-16T09:25:22.791Z,2.00
2022-10-16T09:27:53.856Z,1.70
2022-10-16T09:30:23.804Z,1.50
2022-10-16T09:32:54.191Z,2.13
2022-10-16T09:38:03.611Z,1.98
2022-10-16T09:40:42.976Z,1.60
2022-10-16T09:43:31.644Z,1.95
2022-10-16T09:46:06.264Z,1.83
2022-10-16T09:48:48.253Z,1.95
2022-10-16T09:51:31.732Z,1.83
2022-10-16T09:54:14.900Z,1.60
2022-10-16T09:56:42.646Z,1.52
2022-10-16T09:59:16.428Z,1.60
2022-10-16T10:01:54.221Z,1.33
2022-10-16T10:04:24.595Z,1.73
2022-10-16T10:06:57.698Z,1.88
2022-10-16T10:09:34.361Z,1.98
2022-10-16T10:14:50.406Z,1.90
2022-10-16T10:17:32.297Z,2.10
2022-10-16T10:20:38.957Z,1.67
2022-10-16T10:23:27.411Z,1.70
2022-10-16T10:26:19.443Z,1.60
2022-10-16T10:29:07.329Z,1.73
2022-10-16T10:31:37.215Z,1.83
2022-10-16T10:34:36.183Z,2.00
2022-10-16T10:37:47.642Z,1.45
2022-10-16T10:40:52.679Z,1.45
2022-10-16T10:44:02.440Z,1.95
2022-10-16T10:46:57.825Z,2.33
2022-10-16T10:50:09.056Z,1.75
2022-10-16T10:52:59.197Z,1.30
2022-10-16T10:55:43.921Z,1.67
2022-10-16T10:58:56.068Z,1.48
2022-10-16T11:01:56.972Z,2.05
2022-10-16T11:04:49.723Z,1.63
2022-10-16T11:07:48.850Z,1.60
2022-10-16T11:10:26.909Z,1.98
2022-10-16T11:13:22.295Z,1.50
2022-10-16T11:15:52.714Z,1.60
2022-10-16T11:18:30.958Z,1.88
2022-10-16T11:21:12.453Z,1.95
2022-10-16T11:24:20.235Z,1.50
2022-10-16T11:26:50.304Z,1.48
2022-10-16T11:29:27.348Z,1.83
2022-10-16T11:32:07.606Z,1.30
2022-10-16T11:34:49.130Z,2.10
2022-10-16T11:37:24.775Z,1.52
2022-10-16T11:39:59.707Z,1.42
2022-10-16T11:42:49.456Z,1.50
2022-10-16T11:45:57.254Z,1.40
2022-10-16T11:48:40.042Z,1.40
2022-10-16T11:51:22.563Z,1.30
2022-10-16T11:54:15.227Z,1.90
2022-10-16T11:56:46.624Z,1.20
2022-10-16T11:59:41.524Z,1.83
2022-10-16T12:02:24.952Z,1.60
2022-10-16T12:05:19.815Z,1.08
2022-10-16T12:08:07.360Z,1.58
2022-10-16T12:13:39.844Z,1.52
2022-10-16T12:16:13.132Z,1.40
2022-10-16T12:18:42.998Z,1.90
2022-10-16T12:21:14.505Z,1.60
2022-10-16T12:23:56.754Z,0.93
2022-10-16T12:26:45.332Z,1.42
2022-10-16T12:29:45.637Z,1.33
2022-10-16T12:32:47.380Z,1.83
2022-10-16T12:35:29.306Z,1.30
2022-10-16T12:38:08.555Z,1.17
2022-10-16T12:40:38.925Z,1.33
2022-10-16T12:43:29.812Z,1.58
2022-10-16T12:46:10.620Z,1.00
2022-10-16T12:48:48.811Z,1.55
2022-10-16T12:51:30.351Z,1.48
2022-10-16T12:54:19.402Z,1.40
2022-10-16T12:57:28.299Z,1.52
2022-10-16T13:00:29.750Z,1.27
2022-10-16T13:03:43.306Z,1.00
2022-10-16T13:06:35.530Z,1.48
2022-10-16T13:09:05.896Z,1.30
2022-10-16T13:12:11.564Z,1.13
2022-10-16T13:15:03.585Z,1.40
2022-10-16T13:17:58.300Z,1.20
2022-10-16T13:21:00.976Z,1.60
2022-10-16T13:23:32.071Z,1.58
2022-10-16T13:26:41.813Z,1.30
2022-10-16T13:29:08.834Z,1.17
2022-10-16T13:31:40.038Z,1.20
2022-10-16T13:34:15.331Z,1.38
2022-10-16T13:36:52.909Z,1.02
2022-10-16T13:39:30.119Z,1.33
2022-10-16T13:42:09.147Z,1.27
2022-10-16T13:44:42.870Z,1.08
2022-10-16T13:47:22.710Z,1.23
2022-10-16T13:50:15.061Z,1.27
2022-10-16T13:52:42.408Z,1.40
2022-10-16T13:55:18.644Z,1.73
2022-10-16T13:57:46.110Z,1.00
2022-10-16T14:00:31.149Z,1.30
2022-10-16T14:03:15.944Z,1.33
2022-10-16T14:05:55.664Z,1.20
2022-10-16T14:08:25.617Z,1.52
2022-10-16T14:10:56.971Z,1.50
2022-10-16T14:13:39.067Z,1.20
2022-10-16T14:16:11.557Z,2.22
2022-10-16T14:18:41.181Z,1.48
2022-10-16T14:21:14.904Z,2.05
2022-10-16T14:23:43.753Z,1.60
2022-10-16T14:26:10.451Z,1.85
2022-10-16T14:28:41.193Z,1.50
2022-10-16T14:31:32.134Z,1.55
2022-10-16T14:34:00.179Z,1.55
2022-10-16T14:36:29.028Z,1.40
2022-10-16T14:39:03.415Z,1.20
2022-10-16T14:41:33.088Z,1.35
2022-10-16T14:44:05.340Z,2.15
2022-10-16T14:46:42.227Z,1.50
2022-10-16T14:49:11.774Z,1.42
2022-10-16T14:51:45.635Z,1.30
2022-10-16T14:54:18.575Z,1.33
2022-10-16T14:56:56.444Z,1.30
2022-10-16T14:59:37.257Z,1.60
2022-10-16T15:02:29.221Z,1.75
2022-10-16T15:04:57.159Z,1.83
2022-10-16T15:07:24.812Z,1.20
2022-10-16T15:09:52.299Z,1.77
2022-10-16T15:12:19.082Z,1.40
2022-10-16T15:14:45.907Z,1.73
2022-10-16T15:17:13.434Z,1.52
2022-10-16T15:19:41.303Z,1.80
2022-10-16T15:22:11.984Z,1.65
2022-10-16T15:24:38.964Z,1.48
2022-10-16T15:27:05.757Z,1.90
2022-10-16T15:29:32.483Z,1.17
2022-10-16T15:31:59.194Z,1.25
2022-10-16T15:34:26.004Z,2.30
2022-10-16T15:36:53.044Z,1.38
2022-10-16T15:39:21.224Z,1.40
2022-10-16T15:41:51.745Z,1.30
2022-10-16T15:44:19.466Z,1.95
2022-10-16T15:46:46.950Z,1.73
2022-10-16T15:49:14.029Z,1.95
2022-10-16T15:51:42.704Z,1.50
2022-10-16T15:54:10.457Z,1.50
2022-10-16T15:56:38.370Z,1.73
2022-10-16T15:59:06.094Z,1.45
2022-10-16T16:01:35.655Z,1.50
2022-10-16T16:04:10.971Z,2.70
2022-10-16T16:06:47.044Z,2.55
2022-10-16T16:09:14.958Z,2.88
2022-10-16T16:11:42.668Z,2.50
2022-10-16T16:14:14.587Z,2.75
2022-10-16T16:16:42.273Z,2.10
2022-10-16T16:19:11.782Z,2.50
2022-10-16T16:21:39.529Z,2.70
2022-10-16T16:24:08.849Z,2.83
2022-10-16T16:26:40.278Z,3.47
2022-10-16T16:29:09.386Z,3.58
2022-10-16T16:31:36.341Z,2.88
2022-10-16T16:34:03.988Z,2.88
2022-10-16T16:36:30.917Z,3.88
2022-10-16T16:38:59.217Z,3.22
2022-10-16T16:41:29.635Z,3.42
2022-10-16T16:44:01.863Z,4.88
2022-10-16T16:46:28.628Z,5.25
2022-10-16T16:48:56.332Z,4.25
2022-10-16T16:51:23.156Z,3.72
2022-10-16T16:53:52.926Z,3.40
2022-10-16T16:56:21.645Z,3.20
2022-10-16T16:58:51.348Z,3.53
2022-10-16T17:01:20.332Z,3.95
2022-10-16T17:03:51.556Z,3.42
2022-10-16T17:06:21.919Z,2.72
2022-10-16T17:08:50.210Z,3.05
2022-10-16T17:11:22.155Z,3.10
2022-10-16T17:13:53.943Z,3.53
2022-10-16T17:16:34.063Z,3.30
2022-10-16T17:19:11.699Z,3.38
2022-10-16T17:21:38.468Z,3.17
2022-10-16T17:24:06.336Z,4.10
2022-10-16T17:26:34.112Z,3.53
2022-10-16T17:29:02.453Z,2.90
2022-10-16T17:31:33.803Z,3.05
2022-10-16T17:34:03.430Z,3.05
2022-10-16T17:36:33.866Z,4.32
2022-10-16T17:39:07.254Z,3.38
2022-10-16T17:41:36.266Z,3.67
2022-10-16T17:44:05.815Z,4.30
2022-10-16T17:46:36.889Z,4.18
2022-10-16T17:49:07.099Z,4.85
2022-10-16T17:51:33.913Z,6.53
2022-10-16T17:54:02.032Z,8.13
2022-10-16T17:56:30.356Z,9.95
2022-10-16T17:59:00.288Z,8.32
2022-10-16T18:01:34.524Z,6.55
2022-10-16T18:04:07.202Z,6.25
2022-10-16T18:06:34.919Z,6.20
2022-10-16T18:09:03.771Z,5.53
2022-10-16T18:11:30.931Z,5.05
2022-10-16T18:13:59.704Z,4.18
2022-10-16T18:16:29.815Z,4.30
2022-10-16T18:18:58.127Z,4.40
2022-10-16T18:21:29.871Z,5.45
2022-10-16T18:23:59.333Z,5.65
2022-10-16T18:26:26.816Z,5.03
2022-10-16T18:28:57.026Z,4.85
2022-10-16T18:31:26.229Z,5.00
2022-10-16T18:33:53.920Z,4.45
2022-10-16T18:36:32.434Z,4.38
2022-10-16T18:39:03.118Z,4.47
2022-10-16T18:41:32.464Z,4.57
2022-10-16T18:43:59.280Z,6.05
2022-10-16T18:46:26.940Z,4.90
2022-10-16T18:48:55.852Z,4.95
2022-10-16T18:51:31.198Z,5.15
2022-10-16T18:54:07.143Z,6.32
2022-10-16T18:56:34.125Z,8.80
2022-10-16T18:59:04.823Z,7.32
2022-10-16T19:01:35.400Z,7.20
2022-10-16T19:04:12.449Z,7.40
2022-10-16T19:06:46.211Z,6.10
2022-10-16T19:09:15.906Z,4.95
2022-10-16T19:11:44.154Z,5.30
2022-10-16T19:14:13.632Z,3.95
2022-10-16T19:16:42.853Z,4.90
2022-10-16T19:19:15.190Z,4.90
2022-10-16T19:21:43.320Z,4.10
2022-10-16T19:24:15.019Z,4.07
2022-10-16T19:26:42.719Z,4.80
2022-10-16T19:29:11.162Z,4.72
2022-10-16T19:31:38.446Z,4.90
2022-10-16T19:34:07.326Z,5.32
2022-10-16T19:36:36.671Z,4.85
2022-10-16T19:39:08.637Z,4.82
2022-10-16T19:41:37.940Z,4.97
2022-10-16T19:44:08.631Z,4.40
2022-10-16T19:46:36.611Z,4.82
2022-10-16T19:49:08.687Z,5.22
2022-10-16T19:51:36.800Z,4.97
2022-10-16T19:54:08.957Z,4.65
2022-10-16T19:56:36.252Z,4.68
2022-10-16T19:59:05.476Z,4.88
2022-10-16T20:01:33.430Z,4.60
2022-10-16T20:04:01.172Z,4.47
2022-10-16T20:06:28.196Z,5.15
2022-10-16T20:08:57.552Z,4.30
2022-10-16T20:11:31.318Z,4.28
2022-10-16T20:13:58.888Z,5.22
2022-10-16T20:16:27.845Z,4.38
2022-10-16T20:18:54.892Z,4.50
2022-10-16T20:21:26.373Z,5.03
2022-10-16T20:23:53.360Z,5.05
2022-10-16T20:26:24.297Z,4.30
2022-10-16T20:28:52.163Z,5.07
2022-10-16T20:31:27.184Z,4.68
2022-10-16T20:33:56.920Z,4.40
2022-10-16T20:36:26.536Z,6.18
2022-10-16T20:38:53.788Z,6.15
2022-10-16T20:41:20.738Z,6.25
2022-10-16T20:43:50.254Z,5.28
2022-10-16T20:46:21.935Z,5.72
2022-10-16T20:48:50.098Z,5.68
2022-10-16T20:51:25.916Z,4.90
2022-10-16T20:53:59.399Z,4.43
2022-10-16T20:56:30.110Z,4.32
2022-10-16T20:58:57.312Z,4.57
2022-10-16T21:01:27.446Z,4.30
2022-10-16T21:04:01.693Z,3.70
2022-10-16T21:06:30.919Z,3.97
2022-10-16T21:09:02.725Z,3.90
2022-10-16T21:14:08.140Z,3.75
2022-10-16T21:16:35.212Z,3.53
2022-10-16T21:19:02.448Z,3.83
2022-10-16T21:21:33.215Z,3.67
2022-10-16T21:24:01.487Z,3.17
2022-10-16T21:26:29.937Z,3.30
2022-10-16T21:29:01.432Z,3.40
2022-10-16T21:31:29.084Z,3.28
2022-10-16T21:33:56.472Z,3.33
2022-10-16T21:36:29.792Z,2.63
2022-10-16T21:39:02.000Z,3.17
2022-10-16T21:41:30.124Z,3.40
2022-10-16T21:43:58.683Z,2.85
2022-10-16T21:46:30.049Z,3.20
2022-10-16T21:48:59.600Z,2.80
2022-10-16T21:51:33.636Z,2.70
2022-10-16T21:54:02.235Z,2.30
2022-10-16T21:56:29.862Z,2.63
2022-10-16T21:58:56.601Z,2.28
2022-10-16T22:01:26.048Z,2.55
2022-10-16T22:03:53.567Z,2.38
2022-10-16T22:06:23.843Z,1.95
2022-10-16T22:08:52.720Z,2.40
2022-10-16T22:11:26.917Z,2.33
2022-10-16T22:13:56.638Z,2.42
2022-10-16T22:16:26.420Z,2.08
2022-10-16T22:18:55.889Z,2.40
2022-10-16T22:21:23.802Z,2.60
2022-10-16T22:23:50.623Z,2.20
2022-10-16T22:26:17.621Z,2.17
2022-10-16T22:28:44.415Z,2.33
2022-10-16T22:31:14.336Z,2.53
2022-10-16T22:33:41.465Z,2.33
2022-10-16T22:36:13.833Z,2.38
2022-10-16T22:38:41.294Z,2.30
2022-10-16T22:41:12.463Z,2.80
2022-10-16T22:43:48.420Z,2.53
2022-10-16T22:46:23.210Z,2.30
2022-10-16T22:48:50.163Z,2.60
2022-10-16T22:51:17.762Z,2.78
2022-10-16T22:53:49.347Z,2.63
2022-10-16T22:56:19.940Z,2.85
2022-10-16T22:58:47.494Z,2.67
2022-10-16T23:01:21.876Z,3.00
2022-10-16T23:03:48.718Z,2.30
2022-10-16T23:06:15.765Z,3.03
2022-10-16T23:08:42.596Z,2.72
2022-10-16T23:11:11.900Z,2.55
2022-10-16T23:13:44.968Z,3.25
2022-10-16T23:16:14.787Z,2.85
2022-10-16T23:18:42.855Z,2.92
2022-10-16T23:21:14.848Z,2.80
2022-10-16T23:23:42.758Z,2.92
2022-10-16T23:26:20.003Z,2.70
2022-10-16T23:28:47.180Z,3.22
2022-10-16T23:31:15.787Z,2.90
2022-10-16T23:33:43.280Z,2.95
2022-10-16T23:36:14.004Z,2.90
2022-10-16T23:38:40.811Z,3.45
2022-10-16T23:41:08.162Z,3.13
2022-10-16T23:43:35.527Z,3.15
2022-10-16T23:46:02.639Z,3.58
2022-10-16T23:48:29.711Z,3.53
2022-10-16T23:50:56.617Z,3.20
2022-10-16T23:53:23.602Z,3.28
2022-10-16T23:55:50.397Z,3.50
2022-10-16T23:58:17.643Z,3.22
